Andalusia, Pennsylvania
Current Conditions -  °F | °C
As of 2:54 PM on Thursday 23 Oct 2014 (Local Time) from KPNE Reporting Station
Overcast Overcast  
Wind Chill: 55°   Ceiling: 5000
Heat Index: 55°   Visibility: 10mi
Dew Point: 43°   Wind: 21mph
Humidity: 64%   Direction: 320°NW
Pressure: 29.77"   Gusts: 30mph
Location:  40.1068°N, 74.9379°W
Report Text: KPNE 231854Z 32018G26KT 10SM OVC050 13/06 A2977 RMK AO2 PK WND 32026/1825 RAE06B22E32 SLP082 P0000 T01280061 $
Loading
Personal Weather Stations






























Interactive Weather Map
Tropical Storm Tracking
New forecast layout! Learn more

10-Day Weather Forecast

Advertisements
Track Severe Weather on mobile